createdAt,value
2017-06-10T00:00:12.831Z,3.24
2017-06-10T00:01:17.983Z,3.51
2017-06-10T00:02:21.435Z,3.65
2017-06-10T00:03:24.126Z,3.86
2017-06-10T00:04:27.584Z,3.86
2017-06-10T00:05:30.958Z,4.02
2017-06-10T00:06:33.552Z,4.09
2017-06-10T00:07:36.336Z,4.23
2017-06-10T00:08:38.920Z,4.23
2017-06-10T00:09:41.522Z,4.36
2017-06-10T00:10:44.667Z,4.51
2017-06-10T00:11:47.287Z,4.58
2017-06-10T00:12:49.919Z,4.65
2017-06-10T00:13:52.539Z,4.67
2017-06-10T00:14:55.156Z,4.80
2017-06-10T00:15:58.142Z,4.85
2017-06-10T00:17:01.041Z,4.89
2017-06-10T00:18:03.919Z,4.97
2017-06-10T00:19:06.618Z,5.00
2017-06-10T00:20:11.004Z,5.09
2017-06-10T00:21:13.928Z,5.20
2017-06-10T00:22:16.845Z,5.24
2017-06-10T00:23:19.721Z,5.24
2017-06-10T00:24:23.293Z,5.38
2017-06-10T00:25:26.056Z,5.46
2017-06-10T00:26:28.999Z,5.56
2017-06-10T00:27:31.762Z,5.57
2017-06-10T00:28:34.285Z,5.72
2017-06-10T00:29:36.820Z,5.65
2017-06-10T00:30:39.438Z,5.71
2017-06-10T00:31:42.131Z,5.74
2017-06-10T00:32:44.719Z,5.76
2017-06-10T00:33:48.019Z,5.86
2017-06-10T00:34:50.583Z,5.85
2017-06-10T00:35:54.107Z,5.97
2017-06-10T00:36:56.885Z,6.00
2017-06-10T00:37:59.737Z,6.01
2017-06-10T00:39:02.604Z,6.03
2017-06-10T00:40:05.433Z,5.97
2017-06-10T00:41:07.948Z,6.08
2017-06-10T00:42:10.541Z,6.04
2017-06-10T00:43:13.079Z,6.08
2017-06-10T00:44:16.281Z,6.19
2017-06-10T00:45:19.603Z,6.18
2017-06-10T00:46:22.492Z,6.12
2017-06-10T00:47:25.250Z,6.15
2017-06-10T00:48:28.073Z,6.18
2017-06-10T00:49:30.845Z,6.08
2017-06-10T00:50:33.671Z,6.25
2017-06-10T00:51:36.920Z,6.27
2017-06-10T00:52:39.732Z,6.28
2017-06-10T00:53:42.293Z,6.22
2017-06-10T00:54:44.915Z,6.40
2017-06-10T00:55:48.500Z,6.41
2017-06-10T00:56:52.858Z,6.46
2017-06-10T00:57:55.821Z,6.40
2017-06-10T00:58:58.534Z,6.44
2017-06-10T01:00:01.444Z,6.28
2017-06-10T01:01:06.865Z,6.27
2017-06-10T01:02:12.986Z,6.25
2017-06-10T01:03:15.382Z,6.48
2017-06-10T01:04:17.925Z,6.46
2017-06-10T01:05:21.144Z,6.37
2017-06-10T01:06:23.818Z,6.31
2017-06-10T01:07:27.430Z,6.22
2017-06-10T01:08:30.082Z,6.15
2017-06-10T01:09:33.149Z,6.11
2017-06-10T01:10:35.819Z,6.14
2017-06-10T01:11:38.318Z,6.14
2017-06-10T01:12:40.997Z,6.15
2017-06-10T01:13:43.520Z,5.99
2017-06-10T01:14:46.933Z,5.96
2017-06-10T01:15:49.802Z,6.09
2017-06-10T01:16:52.737Z,5.96
2017-06-10T01:17:55.512Z,5.97
2017-06-10T01:18:58.338Z,5.97
2017-06-10T01:20:01.787Z,5.97
2017-06-10T01:21:04.504Z,6.11
2017-06-10T01:22:07.325Z,6.15
2017-06-10T01:23:10.218Z,6.08
2017-06-10T01:24:13.118Z,6.11
2017-06-10T01:25:16.546Z,6.03
2017-06-10T01:26:19.316Z,6.03
2017-06-10T01:27:22.407Z,6.01
2017-06-10T01:28:25.380Z,5.96
2017-06-10T01:29:30.410Z,6.12
2017-06-10T01:30:33.786Z,6.12
2017-06-10T01:31:36.754Z,6.15
2017-06-10T01:32:39.346Z,6.17
2017-06-10T01:33:41.969Z,6.15
2017-06-10T01:34:44.612Z,6.21
2017-06-10T01:35:47.334Z,6.22
2017-06-10T01:36:49.809Z,6.22
2017-06-10T01:37:52.349Z,6.27
2017-06-10T01:38:56.407Z,6.21
2017-06-10T01:39:59.289Z,6.12
2017-06-10T01:41:02.196Z,6.21
2017-06-10T01:42:05.086Z,6.34
2017-06-10T01:43:08.606Z,6.34
2017-06-10T01:44:11.188Z,6.44
2017-06-10T01:45:14.654Z,6.40
2017-06-10T01:46:17.248Z,6.44
2017-06-10T01:47:19.932Z,6.46
2017-06-10T01:48:23.907Z,6.56
2017-06-10T01:49:26.426Z,6.69
2017-06-10T01:50:29.080Z,6.74
2017-06-10T01:51:32.408Z,6.77
2017-06-10T01:52:35.223Z,6.81
2017-06-10T01:53:38.618Z,6.87
2017-06-10T01:54:41.508Z,6.70
2017-06-10T01:55:44.154Z,6.76
2017-06-10T01:56:46.772Z,6.85
2017-06-10T01:57:49.378Z,6.79
2017-06-10T01:58:52.008Z,6.88
2017-06-10T01:59:54.617Z,6.87
2017-06-10T02:00:59.708Z,6.85
2017-06-10T02:02:06.340Z,6.91
2017-06-10T02:03:08.917Z,7.02
2017-06-10T02:04:11.721Z,6.98
2017-06-10T02:05:14.421Z,6.98
2017-06-10T02:06:17.249Z,7.06
2017-06-10T02:07:20.017Z,7.16
2017-06-10T02:08:22.891Z,6.99
2017-06-10T02:09:26.849Z,7.17
2017-06-10T02:10:29.697Z,7.13
2017-06-10T02:11:32.457Z,7.12
2017-06-10T02:12:35.232Z,7.28
2017-06-10T02:13:38.643Z,7.27
2017-06-10T02:14:40.991Z,7.40
2017-06-10T02:15:43.629Z,7.35
2017-06-10T02:16:46.180Z,7.42
2017-06-10T02:17:48.864Z,7.46
2017-06-10T02:18:51.396Z,7.48
2017-06-10T02:19:53.946Z,7.48
2017-06-10T02:20:56.441Z,7.48
2017-06-10T02:21:59.050Z,7.42
2017-06-10T02:23:01.687Z,7.52
2017-06-10T02:24:05.174Z,7.53
2017-06-10T02:25:07.738Z,7.48
2017-06-10T02:26:10.435Z,7.40
2017-06-10T02:27:13.046Z,7.48
2017-06-10T02:28:16.697Z,7.48
2017-06-10T02:29:19.255Z,7.60
2017-06-10T02:30:22.034Z,7.52
2017-06-10T02:31:24.638Z,7.55
2017-06-10T02:32:27.646Z,7.50
2017-06-10T02:33:30.472Z,7.48
2017-06-10T02:34:33.386Z,7.49
2017-06-10T02:35:36.342Z,7.34
2017-06-10T02:36:39.768Z,7.28
2017-06-10T02:37:42.477Z,7.37
2017-06-10T02:38:45.296Z,7.31
2017-06-10T02:39:48.103Z,7.35
2017-06-10T02:40:51.556Z,7.48
2017-06-10T02:41:54.169Z,7.48
2017-06-10T02:42:56.874Z,7.48
2017-06-10T02:43:59.364Z,7.42
2017-06-10T02:45:01.993Z,7.23
2017-06-10T02:46:05.759Z,7.16
2017-06-10T02:47:09.294Z,7.20
2017-06-10T02:48:11.895Z,7.07
2017-06-10T02:49:14.479Z,7.06
2017-06-10T02:50:17.869Z,7.13
2017-06-10T02:51:20.646Z,7.15
2017-06-10T02:52:23.414Z,7.23
2017-06-10T02:53:26.504Z,7.15
2017-06-10T02:54:29.318Z,6.98
2017-06-10T02:55:31.969Z,6.91
2017-06-10T02:56:34.581Z,6.81
2017-06-10T02:57:37.981Z,6.51
2017-06-10T02:58:40.595Z,6.18
2017-06-10T02:59:43.732Z,5.85
2017-06-10T03:00:47.099Z,5.75
2017-06-10T03:01:54.031Z,5.61
2017-06-10T03:02:56.663Z,5.83
2017-06-10T03:04:01.015Z,6.00
2017-06-10T03:05:03.917Z,6.17
2017-06-10T03:06:06.691Z,6.22
2017-06-10T03:07:09.532Z,6.71
2017-06-10T03:08:12.101Z,6.88
2017-06-10T03:09:14.632Z,6.97
2017-06-10T03:10:17.220Z,6.89
2017-06-10T03:11:19.759Z,6.88
2017-06-10T03:12:23.082Z,6.92
2017-06-10T03:13:25.879Z,6.84
2017-06-10T03:14:28.736Z,6.76
2017-06-10T03:15:31.480Z,6.69
2017-06-10T03:16:33.998Z,6.73
2017-06-10T03:17:36.686Z,6.74
2017-06-10T03:18:39.347Z,6.73
2017-06-10T03:19:41.882Z,6.69
2017-06-10T03:20:44.528Z,6.71
2017-06-10T03:21:47.066Z,6.80
2017-06-10T03:22:51.098Z,6.99
2017-06-10T03:23:53.597Z,7.05
2017-06-10T03:24:57.739Z,7.17
2017-06-10T03:26:00.321Z,7.20
2017-06-10T03:27:02.914Z,7.15
2017-06-10T03:28:05.465Z,7.15
2017-06-10T03:29:08.258Z,7.03
2017-06-10T03:30:11.084Z,7.07
2017-06-10T03:31:14.588Z,6.89
2017-06-10T03:32:17.221Z,6.74
2017-06-10T03:33:20.015Z,6.74
2017-06-10T03:34:22.839Z,6.85
2017-06-10T03:35:25.745Z,6.89
2017-06-10T03:36:28.542Z,6.73
2017-06-10T03:37:32.349Z,6.61
2017-06-10T03:38:35.144Z,6.54
2017-06-10T03:39:39.462Z,6.46
2017-06-10T03:40:42.299Z,6.46
2017-06-10T03:41:45.067Z,6.30
2017-06-10T03:42:49.393Z,6.64
2017-06-10T03:43:52.197Z,6.73
2017-06-10T03:44:54.918Z,6.84
2017-06-10T03:45:57.443Z,6.87
2017-06-10T03:47:01.721Z,6.99
2017-06-10T03:48:04.269Z,7.05
2017-06-10T03:49:06.887Z,7.20
2017-06-10T03:50:09.709Z,7.06
2017-06-10T03:51:12.515Z,7.09
2017-06-10T03:52:15.328Z,7.16
2017-06-10T03:53:18.911Z,7.20
2017-06-10T03:54:22.289Z,7.06
2017-06-10T03:55:25.144Z,7.06
2017-06-10T03:56:27.908Z,7.03
2017-06-10T03:57:30.757Z,7.12
2017-06-10T03:58:33.640Z,7.20
2017-06-10T03:59:37.126Z,7.21
2017-06-10T04:00:44.570Z,7.25
2017-06-10T04:01:51.515Z,7.25
2017-06-10T04:02:54.414Z,7.24
2017-06-10T04:03:57.220Z,7.31
2017-06-10T04:04:59.948Z,7.37
2017-06-10T04:06:02.872Z,7.35
2017-06-10T04:07:05.692Z,7.21
2017-06-10T04:08:08.373Z,7.30
2017-06-10T04:09:12.077Z,7.48
2017-06-10T04:10:15.156Z,7.42
2017-06-10T04:11:18.356Z,7.39
2017-06-10T04:12:20.875Z,7.39
2017-06-10T04:13:23.660Z,7.39
2017-06-10T04:14:26.351Z,7.28
2017-06-10T04:15:28.971Z,7.16
2017-06-10T04:16:32.838Z,7.15
2017-06-10T04:17:36.802Z,7.13
2017-06-10T04:18:39.661Z,7.24
2017-06-10T04:19:44.171Z,7.23
2017-06-10T04:20:46.987Z,7.46
2017-06-10T04:21:49.922Z,7.57
2017-06-10T04:22:52.771Z,7.67
2017-06-10T04:23:55.521Z,7.89
2017-06-10T04:24:58.425Z,7.69
2017-06-10T04:26:02.101Z,7.61
2017-06-10T04:27:05.826Z,7.49
2017-06-10T04:28:08.574Z,7.39
2017-06-10T04:29:11.460Z,7.31
2017-06-10T04:30:14.259Z,7.45
2017-06-10T04:31:16.823Z,7.53
2017-06-10T04:32:19.480Z,7.45
2017-06-10T04:33:22.110Z,7.40
2017-06-10T04:34:24.986Z,7.28
2017-06-10T04:35:27.649Z,7.17
2017-06-10T04:36:30.440Z,7.23
2017-06-10T04:37:33.221Z,7.21
2017-06-10T04:38:36.021Z,7.17
2017-06-10T04:39:38.494Z,7.32
2017-06-10T04:40:40.999Z,7.60
2017-06-10T04:41:43.489Z,7.95
2017-06-10T04:42:45.993Z,7.86
2017-06-10T04:43:48.526Z,7.80
2017-06-10T04:44:51.128Z,7.57
2017-06-10T04:45:55.331Z,7.57
2017-06-10T04:46:58.412Z,7.63
2017-06-10T04:48:01.251Z,7.57
2017-06-10T04:49:04.062Z,7.43
2017-06-10T04:50:06.880Z,7.43
2017-06-10T04:51:09.648Z,7.34
2017-06-10T04:52:12.121Z,7.34
2017-06-10T04:53:14.797Z,7.24
2017-06-10T04:54:17.424Z,7.24
2017-06-10T04:55:20.105Z,7.35
2017-06-10T04:56:22.718Z,7.35
2017-06-10T04:57:25.367Z,7.34
2017-06-10T04:58:27.967Z,7.32
2017-06-10T04:59:31.959Z,7.17
2017-06-10T05:00:39.518Z,7.24
2017-06-10T05:01:46.848Z,7.15
2017-06-10T05:02:50.919Z,7.20
2017-06-10T05:03:53.654Z,7.17
2017-06-10T05:04:56.543Z,7.17
2017-06-10T05:06:00.031Z,7.15
2017-06-10T05:07:02.917Z,7.21
2017-06-10T05:08:06.375Z,7.12
2017-06-10T05:09:09.183Z,7.07
2017-06-10T05:10:12.058Z,7.16
2017-06-10T05:11:14.784Z,7.21
2017-06-10T05:12:17.611Z,7.15
2017-06-10T05:13:20.369Z,7.23
2017-06-10T05:14:23.145Z,7.12
2017-06-10T05:15:26.097Z,7.23
2017-06-10T05:16:28.916Z,7.15
2017-06-10T05:17:31.582Z,7.21
2017-06-10T05:18:34.183Z,7.27
2017-06-10T05:19:36.789Z,7.32
2017-06-10T05:20:39.993Z,7.63
2017-06-10T05:21:42.515Z,7.75
2017-06-10T05:22:45.014Z,7.72
2017-06-10T05:23:47.527Z,7.74
2017-06-10T05:24:50.075Z,7.61
2017-06-10T05:25:52.615Z,7.48
2017-06-10T05:26:55.226Z,7.49
2017-06-10T05:27:57.758Z,7.52
2017-06-10T05:29:00.374Z,7.48
2017-06-10T05:30:03.341Z,7.57
2017-06-10T05:31:06.095Z,7.72
2017-06-10T05:32:09.011Z,7.87
2017-06-10T05:33:11.799Z,8.00
2017-06-10T05:34:14.408Z,7.97
2017-06-10T05:35:16.965Z,7.92
2017-06-10T05:36:19.689Z,8.05
2017-06-10T05:37:22.265Z,8.07
2017-06-10T05:38:25.095Z,8.00
2017-06-10T05:39:27.897Z,8.05
2017-06-10T05:40:30.765Z,7.87
2017-06-10T05:41:33.586Z,7.80
2017-06-10T05:42:36.350Z,7.79
2017-06-10T05:43:39.303Z,7.72
2017-06-10T05:44:41.995Z,7.68
2017-06-10T05:45:44.803Z,7.67
2017-06-10T05:46:47.352Z,7.57
2017-06-10T05:47:50.634Z,7.72
2017-06-10T05:48:53.142Z,7.92
2017-06-10T05:49:55.663Z,7.90
2017-06-10T05:50:58.536Z,7.93
2017-06-10T05:52:01.335Z,7.98
2017-06-10T05:53:04.844Z,8.10
2017-06-10T05:54:07.731Z,7.97
2017-06-10T05:55:10.237Z,7.85
2017-06-10T05:56:12.765Z,7.95
2017-06-10T05:57:15.416Z,8.19
2017-06-10T05:58:18.004Z,8.16
2017-06-10T05:59:20.597Z,8.11
2017-06-10T06:00:24.968Z,7.93
2017-06-10T06:01:32.513Z,7.89
2017-06-10T06:02:34.815Z,7.79
2017-06-10T06:03:37.645Z,7.83
2017-06-10T06:04:41.289Z,7.98
2017-06-10T06:05:44.109Z,8.10
2017-06-10T06:06:46.881Z,8.18
2017-06-10T06:07:49.878Z,8.38
2017-06-10T06:08:52.852Z,8.45
2017-06-10T06:09:55.574Z,8.30
2017-06-10T06:10:58.382Z,8.25
2017-06-10T06:12:01.069Z,8.12
2017-06-10T06:13:03.700Z,8.07
2017-06-10T06:14:06.527Z,7.95
2017-06-10T06:15:09.186Z,7.87
2017-06-10T06:16:12.837Z,7.86
2017-06-10T06:17:15.630Z,7.85
2017-06-10T06:18:18.449Z,7.85
2017-06-10T06:19:21.698Z,8.08
2017-06-10T06:20:24.321Z,8.08
2017-06-10T06:21:26.806Z,8.07
2017-06-10T06:22:29.474Z,7.97
2017-06-10T06:23:31.997Z,7.92
2017-06-10T06:24:34.588Z,7.87
2017-06-10T06:25:37.737Z,7.82
2017-06-10T06:26:40.293Z,7.83
2017-06-10T06:27:44.229Z,7.79
2017-06-10T06:28:47.058Z,7.80
2017-06-10T06:29:49.806Z,7.82
2017-06-10T06:30:52.791Z,7.86
2017-06-10T06:31:55.649Z,7.85
2017-06-10T06:32:58.227Z,7.85
2017-06-10T06:34:00.809Z,7.95
2017-06-10T06:35:03.430Z,8.05
2017-06-10T06:36:05.966Z,8.20
2017-06-10T06:37:08.792Z,8.22
2017-06-10T06:38:11.612Z,8.18
2017-06-10T06:39:14.360Z,8.07
2017-06-10T06:40:18.331Z,8.01
2017-06-10T06:41:21.197Z,7.90
2017-06-10T06:42:24.043Z,7.92
2017-06-10T06:43:27.709Z,7.93
2017-06-10T06:44:30.517Z,7.90
2017-06-10T06:45:33.321Z,8.01
2017-06-10T06:46:36.943Z,8.04
2017-06-10T06:47:39.949Z,8.19
2017-06-10T06:48:42.653Z,8.23
2017-06-10T06:49:45.219Z,8.23
2017-06-10T06:50:47.816Z,8.16
2017-06-10T06:51:50.352Z,8.43
2017-06-10T06:52:52.980Z,8.79
2017-06-10T06:53:56.021Z,9.29
2017-06-10T06:54:59.268Z,9.83
2017-06-10T06:56:02.602Z,10.26
2017-06-10T06:57:05.172Z,10.74
2017-06-10T06:58:07.841Z,11.21
2017-06-10T06:59:10.489Z,11.51
2017-06-10T07:00:14.686Z,11.78
2017-06-10T07:01:20.101Z,11.73
2017-06-10T07:02:24.592Z,11.83
2017-06-10T07:03:28.811Z,11.99
2017-06-10T07:04:31.368Z,12.05
2017-06-10T07:05:33.905Z,12.01
2017-06-10T07:06:36.808Z,12.02
2017-06-10T07:07:39.711Z,12.27
2017-06-10T07:08:42.717Z,12.50
2017-06-10T07:09:45.594Z,12.75
2017-06-10T07:10:49.583Z,12.87
2017-06-10T07:11:52.329Z,13.07
2017-06-10T07:12:55.102Z,13.38
2017-06-10T07:13:59.380Z,13.60
2017-06-10T07:15:09.729Z,13.71
2017-06-10T07:16:13.801Z,13.81
2017-06-10T07:17:18.086Z,14.06
2017-06-10T07:18:23.883Z,14.15
2017-06-10T07:19:26.666Z,14.20
2017-06-10T07:20:31.347Z,13.82
2017-06-10T07:21:34.737Z,13.52
2017-06-10T07:22:38.296Z,12.82
2017-06-10T07:23:42.751Z,12.53
2017-06-10T07:24:45.790Z,12.70
2017-06-10T07:25:50.503Z,12.79
2017-06-10T07:26:55.940Z,12.83
2017-06-10T07:28:05.036Z,13.10
2017-06-10T07:29:12.527Z,13.36
2017-06-10T07:30:15.154Z,13.59
2017-06-10T07:31:18.583Z,13.52
2017-06-10T07:32:24.066Z,13.66
2017-06-10T07:33:27.232Z,13.75
2017-06-10T07:34:30.070Z,14.04
2017-06-10T07:35:32.890Z,14.39
2017-06-10T07:36:35.473Z,14.73
2017-06-10T07:37:38.063Z,14.96
2017-06-10T07:38:40.758Z,14.68
2017-06-10T07:39:43.295Z,14.43
2017-06-10T07:40:46.545Z,14.28
2017-06-10T07:41:49.184Z,14.45
2017-06-10T07:42:52.642Z,14.83
2017-06-10T07:43:55.262Z,15.03
2017-06-10T07:44:57.871Z,14.86
2017-06-10T07:46:00.447Z,14.77
2017-06-10T07:47:03.222Z,15.21
2017-06-10T07:48:05.828Z,15.64
2017-06-10T07:49:09.330Z,15.62
2017-06-10T07:50:12.139Z,15.64
2017-06-10T07:51:15.002Z,15.59
2017-06-10T07:52:17.867Z,15.51
2017-06-10T07:53:20.970Z,15.64
2017-06-10T07:54:23.739Z,15.76
2017-06-10T07:55:27.360Z,16.11
2017-06-10T07:56:30.086Z,16.31
2017-06-10T07:57:32.951Z,16.63
2017-06-10T07:58:35.784Z,16.70
2017-06-10T07:59:38.679Z,16.12
2017-06-10T08:00:45.334Z,15.28
2017-06-10T08:01:53.523Z,14.88
2017-06-10T08:02:56.227Z,15.09
2017-06-10T08:03:59.894Z,15.43
2017-06-10T08:05:02.793Z,15.43
2017-06-10T08:06:05.384Z,15.38
2017-06-10T08:07:07.992Z,15.50
2017-06-10T08:08:10.578Z,15.03
2017-06-10T08:09:13.145Z,14.39
2017-06-10T08:10:15.827Z,13.96
2017-06-10T08:11:18.359Z,13.84
2017-06-10T08:12:20.979Z,13.79
2017-06-10T08:13:23.492Z,14.00
2017-06-10T08:14:26.377Z,14.52
2017-06-10T08:15:28.970Z,14.88
2017-06-10T08:16:31.551Z,15.25
2017-06-10T08:17:34.147Z,15.89
2017-06-10T08:18:36.953Z,16.09
2017-06-10T08:19:39.819Z,15.60
2017-06-10T08:20:42.695Z,15.34
2017-06-10T08:21:45.525Z,15.80
2017-06-10T08:22:48.048Z,16.38
2017-06-10T08:23:51.156Z,16.91
2017-06-10T08:24:53.575Z,17.54
2017-06-10T08:25:56.239Z,17.97
2017-06-10T08:26:59.119Z,18.41
2017-06-10T08:28:01.508Z,18.30
2017-06-10T08:29:04.015Z,17.54
2017-06-10T08:30:06.566Z,16.98
2017-06-10T08:31:09.229Z,16.07
2017-06-10T08:32:11.886Z,15.94
2017-06-10T08:33:14.508Z,15.86
2017-06-10T08:34:17.133Z,15.51
2017-06-10T08:35:19.683Z,15.64
2017-06-10T08:36:22.286Z,15.23
2017-06-10T08:37:24.884Z,14.78
2017-06-10T08:38:27.501Z,14.25
2017-06-10T08:39:30.392Z,14.15
2017-06-10T08:40:33.108Z,14.09
2017-06-10T08:41:35.899Z,14.73
2017-06-10T08:42:38.628Z,15.39
2017-06-10T08:43:41.364Z,15.94
2017-06-10T08:44:44.101Z,16.50
2017-06-10T08:45:47.389Z,17.08
2017-06-10T08:46:51.234Z,17.56
2017-06-10T08:47:54.121Z,17.95
2017-06-10T08:48:56.968Z,18.17
2017-06-10T08:49:59.687Z,18.58
2017-06-10T08:51:02.570Z,18.90
2017-06-10T08:52:05.056Z,18.81
2017-06-10T08:53:07.620Z,18.41
2017-06-10T08:54:11.622Z,18.12
2017-06-10T08:55:14.315Z,17.89
2017-06-10T08:56:17.256Z,17.62
2017-06-10T08:57:20.079Z,16.83
2017-06-10T08:58:23.444Z,16.02
2017-06-10T08:59:26.392Z,14.98
2017-06-10T09:00:32.286Z,14.37
2017-06-10T09:01:39.717Z,14.00
2017-06-10T09:02:42.170Z,13.85
2017-06-10T09:03:44.922Z,13.77
2017-06-10T09:04:47.605Z,13.78
2017-06-10T09:05:50.207Z,13.79
2017-06-10T09:06:52.721Z,13.63
2017-06-10T09:07:55.429Z,13.49
2017-06-10T09:08:58.219Z,13.54
2017-06-10T09:10:01.065Z,13.48
2017-06-10T09:11:04.534Z,13.30
2017-06-10T09:12:08.360Z,13.32
2017-06-10T09:13:10.958Z,13.39
2017-06-10T09:14:13.609Z,13.48
2017-06-10T09:15:16.201Z,13.49
2017-06-10T09:16:18.811Z,13.51
2017-06-10T09:17:21.791Z,13.67
2017-06-10T09:18:24.618Z,13.84
2017-06-10T09:19:27.440Z,13.91
2017-06-10T09:20:30.258Z,14.33
2017-06-10T09:21:33.183Z,14.65
2017-06-10T09:22:35.990Z,14.89
2017-06-10T09:23:38.711Z,15.03
2017-06-10T09:24:41.544Z,14.98
2017-06-10T09:25:44.034Z,14.88
2017-06-10T09:26:46.681Z,14.75
2017-06-10T09:27:49.351Z,14.84
2017-06-10T09:28:51.894Z,14.89
2017-06-10T09:29:54.403Z,14.91
2017-06-10T09:30:56.905Z,14.81
2017-06-10T09:32:00.844Z,14.75
2017-06-10T09:33:03.400Z,15.06
2017-06-10T09:34:06.046Z,14.96
2017-06-10T09:35:08.646Z,14.92
2017-06-10T09:36:11.260Z,15.29
2017-06-10T09:37:13.909Z,15.53
2017-06-10T09:38:16.705Z,15.67
2017-06-10T09:39:19.626Z,15.75
2017-06-10T09:40:22.596Z,15.59
2017-06-10T09:41:25.446Z,15.44
2017-06-10T09:42:28.295Z,15.31
2017-06-10T09:43:31.168Z,15.11
2017-06-10T09:44:34.025Z,15.07
2017-06-10T09:45:36.861Z,15.09
2017-06-10T09:46:39.705Z,15.14
2017-06-10T09:47:42.557Z,14.99
2017-06-10T09:48:45.382Z,15.06
2017-06-10T09:49:48.393Z,14.91
2017-06-10T09:50:51.164Z,14.88
2017-06-10T09:51:53.943Z,14.98
2017-06-10T09:52:56.956Z,15.17
2017-06-10T09:53:59.746Z,15.13
2017-06-10T09:55:02.426Z,14.94
2017-06-10T09:56:05.022Z,14.40
2017-06-10T09:57:07.720Z,14.07
2017-06-10T09:58:10.269Z,14.39
2017-06-10T09:59:12.836Z,14.51
2017-06-10T10:00:20.098Z,14.52
2017-06-10T10:01:27.216Z,14.32
2017-06-10T10:02:31.766Z,14.43
2017-06-10T10:03:33.993Z,14.14
2017-06-10T10:04:36.575Z,13.96
2017-06-10T10:05:39.128Z,13.42
2017-06-10T10:06:41.632Z,13.14
2017-06-10T10:07:44.527Z,13.22
2017-06-10T10:08:47.347Z,13.12
2017-06-10T10:09:50.275Z,12.93
2017-06-10T10:10:53.044Z,12.90
2017-06-10T10:11:55.810Z,12.97
2017-06-10T10:12:58.443Z,13.11
2017-06-10T10:14:01.274Z,13.44
2017-06-10T10:15:03.800Z,13.78
2017-06-10T10:16:06.596Z,13.78
2017-06-10T10:17:09.386Z,14.02
2017-06-10T10:18:12.313Z,14.04
2017-06-10T10:19:17.502Z,13.95
2017-06-10T10:20:20.386Z,14.03
2017-06-10T10:21:23.225Z,14.21
2017-06-10T10:22:26.015Z,14.33
2017-06-10T10:23:28.830Z,14.50
2017-06-10T10:24:31.404Z,14.40
2017-06-10T10:25:34.199Z,14.32
2017-06-10T10:26:36.773Z,14.28
2017-06-10T10:27:39.459Z,14.10
2017-06-10T10:28:42.251Z,14.04
2017-06-10T10:29:44.852Z,14.12
2017-06-10T10:30:47.699Z,14.09
2017-06-10T10:31:50.529Z,14.12
2017-06-10T10:32:53.149Z,14.24
2017-06-10T10:33:55.708Z,14.25
2017-06-10T10:34:58.280Z,14.10
2017-06-10T10:36:00.939Z,14.29
2017-06-10T10:37:03.482Z,14.33
2017-06-10T10:38:06.144Z,14.37
2017-06-10T10:39:08.748Z,14.22
2017-06-10T10:40:11.347Z,13.96
2017-06-10T10:41:14.210Z,13.57
2017-06-10T10:42:16.988Z,13.48
2017-06-10T10:43:19.838Z,13.51
2017-06-10T10:44:22.734Z,13.63
2017-06-10T10:45:25.215Z,13.71
2017-06-10T10:46:27.779Z,13.60
2017-06-10T10:47:30.637Z,13.45
2017-06-10T10:48:33.216Z,13.44
2017-06-10T10:49:36.039Z,13.52
2017-06-10T10:50:38.975Z,13.60
2017-06-10T10:51:41.729Z,13.28
2017-06-10T10:52:44.583Z,13.08
2017-06-10T10:53:47.433Z,13.20
2017-06-10T10:54:50.353Z,13.33
2017-06-10T10:55:53.206Z,13.25
2017-06-10T10:56:56.099Z,13.25
2017-06-10T10:57:58.693Z,12.97
2017-06-10T10:59:01.376Z,12.95
2017-06-10T11:00:05.846Z,13.01
2017-06-10T11:01:11.849Z,13.11
2017-06-10T11:02:18.963Z,13.30
2017-06-10T11:03:21.557Z,13.60
2017-06-10T11:04:25.905Z,13.84
2017-06-10T11:05:28.687Z,13.70
2017-06-10T11:06:31.243Z,13.39
2017-06-10T11:07:33.925Z,13.49
2017-06-10T11:08:36.620Z,13.49
2017-06-10T11:09:39.243Z,13.59
2017-06-10T11:10:41.901Z,13.42
2017-06-10T11:11:44.455Z,13.48
2017-06-10T11:12:47.103Z,13.48
2017-06-10T11:13:49.817Z,13.49
2017-06-10T11:14:52.658Z,13.28
2017-06-10T11:15:55.260Z,13.32
2017-06-10T11:16:57.829Z,13.62
2017-06-10T11:18:00.387Z,13.67
2017-06-10T11:19:03.219Z,13.78
2017-06-10T11:20:06.018Z,13.57
2017-06-10T11:21:08.861Z,13.64
2017-06-10T11:22:11.695Z,13.51
2017-06-10T11:23:14.534Z,13.29
2017-06-10T11:24:17.319Z,13.12
2017-06-10T11:25:20.227Z,13.04
2017-06-10T11:26:23.116Z,13.19
2017-06-10T11:27:25.928Z,12.92
2017-06-10T11:28:28.764Z,12.68
2017-06-10T11:29:31.684Z,12.96
2017-06-10T11:30:34.464Z,13.11
2017-06-10T11:31:37.291Z,13.08
2017-06-10T11:32:40.010Z,13.28
2017-06-10T11:33:42.804Z,13.33
2017-06-10T11:34:45.352Z,13.36
2017-06-10T11:35:48.078Z,13.30
2017-06-10T11:36:50.707Z,13.39
2017-06-10T11:37:53.277Z,13.52
2017-06-10T11:38:55.827Z,13.26
2017-06-10T11:39:58.438Z,13.55
2017-06-10T11:41:01.009Z,13.30
2017-06-10T11:42:03.853Z,13.20
2017-06-10T11:43:06.471Z,13.20
2017-06-10T11:44:09.197Z,12.95
2017-06-10T11:45:11.921Z,12.95
2017-06-10T11:46:14.617Z,13.00
2017-06-10T11:47:17.328Z,13.19
2017-06-10T11:48:19.973Z,13.42
2017-06-10T11:49:22.615Z,13.30
2017-06-10T11:50:25.231Z,12.97
2017-06-10T11:51:27.741Z,12.82
2017-06-10T11:52:30.414Z,12.35
2017-06-10T11:53:33.165Z,12.35
2017-06-10T11:54:35.785Z,12.41
2017-06-10T11:55:38.336Z,12.70
2017-06-10T11:56:41.282Z,12.60
2017-06-10T11:57:43.826Z,12.64
2017-06-10T11:58:46.578Z,12.72
2017-06-10T11:59:49.267Z,12.59
2017-06-10T12:00:52.739Z,12.87
2017-06-10T12:01:58.097Z,13.10
2017-06-10T12:03:00.532Z,13.07
2017-06-10T12:04:03.076Z,12.95
2017-06-10T12:05:05.788Z,12.72
2017-06-10T12:06:08.504Z,12.70
2017-06-10T12:07:11.239Z,12.70
2017-06-10T12:08:13.964Z,12.71
2017-06-10T12:09:16.629Z,13.10
2017-06-10T12:10:19.302Z,12.72
2017-06-10T12:11:22.029Z,12.57
2017-06-10T12:12:24.643Z,12.68
2017-06-10T12:13:27.351Z,12.57
2017-06-10T12:14:30.090Z,12.67
2017-06-10T12:15:32.788Z,13.00
2017-06-10T12:16:35.494Z,13.10
2017-06-10T12:17:38.125Z,12.92
2017-06-10T12:18:40.810Z,12.92
2017-06-10T12:19:43.374Z,12.89
2017-06-10T12:20:46.033Z,13.10
2017-06-10T12:21:48.550Z,13.03
2017-06-10T12:22:51.211Z,12.82
2017-06-10T12:23:53.774Z,12.77
2017-06-10T12:24:56.468Z,12.72
2017-06-10T12:25:59.178Z,13.07
2017-06-10T12:27:01.831Z,13.28
2017-06-10T12:28:04.494Z,13.54
2017-06-10T12:29:07.114Z,13.73
2017-06-10T12:30:09.813Z,13.49
2017-06-10T12:31:12.448Z,13.20
2017-06-10T12:32:15.113Z,13.42
2017-06-10T12:33:17.887Z,13.78
2017-06-10T12:34:20.555Z,13.85
2017-06-10T12:35:23.215Z,13.87
2017-06-10T12:36:25.886Z,14.00
2017-06-10T12:37:28.441Z,14.02
2017-06-10T12:38:31.120Z,14.10
2017-06-10T12:39:34.700Z,14.12
2017-06-10T12:40:37.299Z,14.14
2017-06-10T12:41:39.920Z,14.18
2017-06-10T12:42:42.622Z,14.00
2017-06-10T12:43:45.327Z,13.85
2017-06-10T12:44:48.035Z,13.79
2017-06-10T12:45:50.747Z,13.78
2017-06-10T12:46:53.311Z,13.77
2017-06-10T12:47:55.866Z,13.55
2017-06-10T12:48:58.559Z,13.59
2017-06-10T12:50:01.234Z,13.75
2017-06-10T12:51:03.840Z,13.73
2017-06-10T12:52:06.389Z,13.81
2017-06-10T12:53:09.009Z,13.84
2017-06-10T12:54:11.656Z,13.81
2017-06-10T12:55:14.263Z,13.38
2017-06-10T12:56:16.902Z,12.79
2017-06-10T12:57:19.619Z,12.67
2017-06-10T12:58:22.364Z,12.70
2017-06-10T12:59:25.065Z,12.68
2017-06-10T13:00:29.824Z,12.97
2017-06-10T13:01:38.227Z,13.15
2017-06-10T13:02:43.618Z,13.07
2017-06-10T13:03:46.021Z,13.10
2017-06-10T13:04:48.723Z,13.32
2017-06-10T13:05:51.465Z,13.49
2017-06-10T13:06:54.182Z,13.48
2017-06-10T13:07:56.698Z,13.54
2017-06-10T13:08:59.317Z,13.49
2017-06-10T13:10:02.025Z,13.36
2017-06-10T13:11:04.626Z,13.12
2017-06-10T13:12:07.245Z,13.17
2017-06-10T13:13:09.797Z,13.38
2017-06-10T13:14:12.349Z,13.81
2017-06-10T13:15:15.049Z,13.79
2017-06-10T13:16:17.857Z,13.70
2017-06-10T13:17:20.595Z,13.71
2017-06-10T13:18:23.151Z,13.63
2017-06-10T13:19:25.777Z,13.87
2017-06-10T13:20:28.423Z,13.81
2017-06-10T13:21:31.128Z,13.73
2017-06-10T13:22:33.893Z,13.49
2017-06-10T13:23:36.477Z,13.54
2017-06-10T13:24:39.089Z,13.57
2017-06-10T13:25:41.636Z,13.77
2017-06-10T13:26:44.258Z,13.87
2017-06-10T13:27:46.838Z,13.82
2017-06-10T13:28:49.556Z,14.14
2017-06-10T13:29:52.262Z,14.42
2017-06-10T13:30:54.866Z,14.18
2017-06-10T13:31:57.590Z,14.07
2017-06-10T13:33:00.202Z,14.04
2017-06-10T13:34:02.821Z,13.73
2017-06-10T13:35:05.433Z,13.84
2017-06-10T13:36:08.052Z,13.92
2017-06-10T13:37:10.862Z,13.78
2017-06-10T13:38:13.473Z,13.88
2017-06-10T13:39:16.032Z,14.06
2017-06-10T13:40:18.597Z,14.14
2017-06-10T13:41:21.390Z,13.89
2017-06-10T13:42:24.109Z,13.99
2017-06-10T13:43:26.823Z,14.10
2017-06-10T13:44:29.556Z,14.37